Hohhot, China
Current Conditions -  °F | °C
As of 2:00 PM on Sunday 26 Oct 2014 (Local Time) from ZBHH Reporting Station
Clear Clear  
Wind Chill: 57°   Ceiling: Unl
Heat Index: 57°   Visibility: 6mi
Dew Point: 18°   Wind: 7mph
Humidity: 21%   Direction: 100°E
Pressure: 30.3"   Gusts: NA
Location:  40.82°N, 111.64°E
Report Text: ZBHH 260600Z 10003MPS 040V140 CAVOK 14/M08 Q1026 NOSIG
Loading
Personal Weather Stations






























Interactive Weather Map
Tropical Storm Tracking
New forecast layout! Learn more

10-Day Weather Forecast

Advertisements
Track Severe Weather on mobile